Time;durP1;ratioP1;P1;durP2;ratioP2;P2;SDS_P1;SDS_P2;PMS_P1;PMS_P2;Temp;Humidity;BMP_temperature;BMP_pressure;BME280_temperature;BME280_humidity;BME280_pressure;Samples;Min_cycle;Max_cycle;Signal;HPM_P1;HPM_P2
2022/06/14 00:03:14;;;;;;;2.90;1.40;;;;;;;13.85;98.20;97816.23;1805971;78;21112;-63
2022/06/14 00:05:41;;;;;;;2.37;1.35;;;;;;;13.81;98.23;97828.72;1797329;78;20895;-59
2022/06/14 00:08:08;;;;;;;1.65;1.30;;;;;;;13.75;98.06;97835.37;1785689;78;20891;-63
2022/06/14 00:10:36;;;;;;;2.98;1.40;;;;;;;13.70;97.88;97842.49;1767409;78;20985;-60
2022/06/14 00:13:04;;;;;;;2.98;1.22;;;;;;;13.65;97.03;97843.98;1789689;79;21452;-61
2022/06/14 00:15:31;;;;;;;3.35;1.70;;;;;;;13.58;97.13;97874.59;1767443;79;21098;-61
2022/06/14 00:17:59;;;;;;;2.02;1.10;;;;;;;13.49;96.95;97871.09;1777177;78;20923;-60
2022/06/14 00:20:25;;;;;;;2.42;1.15;;;;;;;13.41;96.88;97877.22;1790622;78;20944;-61
2022/06/14 00:22:52;;;;;;;2.92;1.37;;;;;;;13.34;97.14;97895.70;1803682;79;20906;-60
2022/06/14 00:25:27;;;;;;;3.17;1.40;;;;;;;13.30;97.08;97888.02;1792024;78;21006;-59
2022/06/14 00:27:54;;;;;;;2.30;1.10;;;;;;;13.27;97.02;97881.91;1775209;78;21981;-61
2022/06/14 00:30:22;;;;;;;2.42;1.37;;;;;;;13.25;97.08;97876.05;1803909;78;20855;-60
2022/06/14 00:32:49;;;;;;;2.02;1.40;;;;;;;13.22;97.09;97873.97;1794002;79;20933;-60
2022/06/14 00:35:16;;;;;;;5.17;1.60;;;;;;;13.20;97.34;97875.37;1770939;79;21414;-62
2022/06/14 00:37:42;;;;;;;2.00;1.20;;;;;;;13.21;97.32;97888.53;1812892;79;21427;-60
2022/06/14 00:40:12;;;;;;;3.05;1.80;;;;;;;13.18;97.00;97883.77;1793798;78;22054;-59
2022/06/14 00:42:40;;;;;;;2.15;1.35;;;;;;;13.13;97.34;97891.96;1790456;78;21029;-63
2022/06/14 00:45:18;;;;;;;2.05;1.25;;;;;;;13.10;97.57;97885.84;1797904;78;20920;-61
2022/06/14 00:47:50;;;;;;;6.60;1.40;;;;;;;13.08;97.62;97866.55;1790549;79;20931;-62
2022/06/14 00:50:24;;;;;;;1.95;1.40;;;;;;;13.12;97.75;97854.06;1785258;78;21426;-61
2022/06/14 00:52:57;;;;;;;7.25;1.62;;;;;;;13.17;98.10;97865.23;1791095;79;20985;-61
2022/06/14 00:55:38;;;;;;;3.98;1.42;;;;;;;13.19;97.55;97881.87;1810326;79;21536;-58
2022/06/14 00:58:13;;;;;;;2.22;1.40;;;;;;;13.18;97.51;97870.31;1783161;78;20898;-63
2022/06/14 01:00:51;;;;;;;2.05;1.40;;;;;;;13.16;97.36;97875.22;1793570;79;21407;-62
2022/06/14 01:03:25;;;;;;;1.62;1.27;;;;;;;13.14;97.44;97864.52;1769695;78;21350;-58
2022/06/14 01:06:07;;;;;;;1.67;1.30;;;;;;;13.16;97.71;97863.66;1781724;78;21110;-65
2022/06/14 01:08:43;;;;;;;1.75;1.30;;;;;;;13.16;97.29;97871.73;1765312;80;20973;-62
2022/06/14 01:11:20;;;;;;;3.42;1.80;;;;;;;13.15;97.39;97874.96;1772147;80;21417;-63
2022/06/14 01:13:47;;;;;;;3.08;1.72;;;;;;;13.13;97.44;97878.52;1806719;78;20884;-61
2022/06/14 01:16:14;;;;;;;3.52;1.80;;;;;;;13.12;97.78;97872.11;1792419;78;20945;-59
2022/06/14 01:18:40;;;;;;;2.40;1.67;;;;;;;13.10;98.17;97868.37;1794650;78;21057;-61
2022/06/14 01:21:07;;;;;;;4.08;1.80;;;;;;;13.07;98.22;97873.04;1757350;80;20922;-64
2022/06/14 01:23:34;;;;;;;3.60;1.90;;;;;;;13.04;98.53;97880.34;1763438;80;21053;-63
2022/06/14 01:26:17;;;;;;;3.27;1.90;;;;;;;13.01;98.82;97878.26;1749909;80;21359;-62
2022/06/14 01:28:47;;;;;;;2.50;1.90;;;;;;;13.02;99.07;97877.17;1743952;81;21428;-63
2022/06/14 01:31:14;;;;;;;2.47;1.70;;;;;;;13.03;99.26;97874.16;1758511;81;21075;-63
2022/06/14 01:33:44;;;;;;;2.37;1.95;;;;;;;13.04;99.58;97872.27;1717506;82;20923;-61
2022/06/14 01:36:24;;;;;;;3.30;1.80;;;;;;;13.01;99.65;97870.99;1783919;78;20925;-60
2022/06/14 01:38:50;;;;;;;1.75;1.40;;;;;;;13.02;99.76;97875.83;1780293;78;21446;-61
2022/06/14 01:41:38;;;;;;;2.25;1.60;;;;;;;13.01;100.00;97881.75;1741335;80;20935;-61
2022/06/14 01:44:19;;;;;;;2.65;1.70;;;;;;;12.99;100.00;97871.05;1697898;82;21661;-64
2022/06/14 01:47:04;;;;;;;4.47;1.57;;;;;;;12.99;100.00;97872.41;1764686;80;21473;-61
2022/06/14 01:53:18;;;;;;;2.27;1.80;;;;;;;13.06;100.00;97882.20;1772228;80;20989;-59
2022/06/14 01:56:06;;;;;;;2.47;1.77;;;;;;;13.07;100.00;97877.08;1776816;80;20862;-64
2022/06/14 01:58:41;;;;;;;2.02;1.90;;;;;;;13.08;100.00;97879.19;1759595;80;21065;-64
2022/06/14 02:01:38;;;;;;;2.25;1.85;;;;;;;13.09;100.00;97885.62;1774452;80;20972;-62
2022/06/14 02:04:38;;;;;;;2.77;2.27;;;;;;;13.09;100.00;97880.24;1812950;78;21058;-62
2022/06/14 02:07:35;;;;;;;3.25;2.37;;;;;;;13.10;100.00;97876.44;1811646;79;21349;-63
2022/06/14 02:10:16;;;;;;;5.37;2.37;;;;;;;13.13;100.00;97882.55;1811705;79;20877;-63
2022/06/14 02:13:06;;;;;;;2.98;2.47;;;;;;;13.13;100.00;97899.23;1789646;78;21117;-63
2022/06/14 02:15:51;;;;;;;4.72;2.62;;;;;;;13.13;100.00;97900.03;1772253;78;20890;-60
2022/06/14 02:18:49;;;;;;;2.60;2.40;;;;;;;13.14;100.00;97901.62;1764747;80;33625;-61
2022/06/14 02:21:49;;;;;;;3.70;2.52;;;;;;;13.18;100.00;97899.09;1771250;80;20945;-64
2022/06/14 02:24:23;;;;;;;3.45;3.15;;;;;;;13.18;100.00;97909.31;1747592;78;21020;-59
2022/06/14 02:27:16;;;;;;;5.17;3.50;;;;;;;13.19;100.00;97914.14;1755447;79;21195;-62
2022/06/14 02:29:48;;;;;;;4.65;3.60;;;;;;;13.19;100.00;97921.64;1765409;79;20921;-63
2022/06/14 02:32:22;;;;;;;4.42;3.17;;;;;;;13.20;100.00;97919.20;1793554;79;21018;-61
2022/06/14 02:34:55;;;;;;;;;;;;;;;13.24;100.00;97910.75;1804242;78;20954;-63
2022/06/14 02:37:27;;;;;;;4.85;3.80;;;;;;;13.23;100.00;97917.25;1785401;78;20098;-64
2022/06/14 02:40:08;;;;;;;4.30;3.90;;;;;;;13.22;99.92;97918.34;1793650;79;21119;-64
2022/06/14 02:42:38;;;;;;;4.22;3.47;;;;;;;13.19;99.98;97921.64;1791414;78;21031;-62
2022/06/14 02:45:19;;;;;;;3.98;3.58;;;;;;;13.20;100.00;97924.59;1758445;80;20918;-61
2022/06/14 02:48:22;;;;;;;6.22;4.00;;;;;;;13.17;99.80;97933.26;1773751;80;20997;-62
2022/06/14 02:51:03;;;;;;;4.80;3.90;;;;;;;13.16;99.89;97932.23;1802631;79;20998;-61
2022/06/14 02:53:39;;;;;;;5.05;4.25;;;;;;;13.15;99.83;97934.13;1781830;78;21233;-59
2022/06/14 02:56:26;;;;;;;4.90;4.22;;;;;;;13.14;99.80;97936.59;1810560;78;20877;-63
2022/06/14 02:58:58;;;;;;;4.12;3.72;;;;;;;13.12;99.72;97933.96;1790218;79;20849;-63
2022/06/14 03:01:45;;;;;;;4.55;3.87;;;;;;;13.09;99.89;97934.02;1740722;80;21561;-59
2022/06/14 03:04:24;;;;;;;6.08;4.20;;;;;;;13.11;100.00;97937.20;1771033;80;20879;-62
2022/06/14 03:07:02;;;;;;;5.45;4.60;;;;;;;13.09;100.00;97946.13;1707715;81;21134;-63
2022/06/14 03:09:31;;;;;;;4.30;3.85;;;;;;;13.09;100.00;97950.70;1761217;80;21407;-63
2022/06/14 03:12:19;;;;;;;5.42;4.00;;;;;;;13.10;100.00;97954.41;1749900;80;20987;-63
2022/06/14 03:15:31;;;;;;;9.08;4.03;;;;;;;13.10;100.00;97954.41;1719687;82;20997;-62
2022/06/14 03:18:15;;;;;;;5.33;4.50;;;;;;;13.13;99.91;97965.11;1662191;84;21026;-58
2022/06/14 03:21:00;;;;;;;5.50;4.10;;;;;;;13.15;99.17;97965.05;1658775;84;21282;-62
2022/06/14 03:23:45;;;;;;;5.35;4.12;;;;;;;13.14;99.23;97967.52;1726619;81;20918;-62
2022/06/14 03:26:46;;;;;;;6.20;4.37;;;;;;;13.17;99.13;97962.84;1739782;81;20945;-61
2022/06/14 03:29:21;;;;;;;6.05;4.85;;;;;;;13.21;98.25;97959.80;1791156;79;20956;-60
2022/06/14 03:31:55;;;;;;;6.55;4.47;;;;;;;13.22;98.17;97969.44;1805992;78;21490;-58
2022/06/14 03:34:35;;;;;;;4.90;4.40;;;;;;;13.18;97.71;97964.45;1772077;78;21179;-59
2022/06/14 03:37:02;;;;;;;4.92;4.35;;;;;;;13.16;97.88;97973.92;1775412;78;21469;-61
2022/06/14 03:39:33;;;;;;;5.35;4.70;;;;;;;13.17;97.77;97977.64;1806285;78;21407;-59
2022/06/14 03:42:03;;;;;;;5.10;4.60;;;;;;;13.14;96.93;97979.61;1763280;79;20932;-58
2022/06/14 03:44:31;;;;;;;6.10;4.70;;;;;;;13.14;97.22;97986.34;1761311;80;20902;-59
2022/06/14 03:47:15;;;;;;;7.03;5.17;;;;;;;13.14;97.07;97992.26;1758335;80;21229;-61
2022/06/14 03:49:51;;;;;;;5.67;5.15;;;;;;;13.09;96.90;97992.38;1733452;82;20912;-59
2022/06/14 03:52:54;;;;;;;5.33;4.80;;;;;;;13.06;96.93;97988.41;1799054;78;21468;-61
2022/06/14 03:55:57;;;;;;;5.65;5.15;;;;;;;13.07;96.94;97995.38;1784667;79;20914;-60
2022/06/14 03:58:44;;;;;;;6.95;5.47;;;;;;;13.16;96.89;97995.43;1773319;78;21406;-62
2022/06/14 04:01:21;;;;;;;7.42;5.00;;;;;;;13.19;96.32;97994.25;1798423;79;21264;-63
2022/06/14 04:04:13;;;;;;;5.08;4.60;;;;;;;13.21;95.90;97991.28;1776862;79;20987;-58
2022/06/14 04:06:55;;;;;;;6.60;5.10;;;;;;;13.23;95.84;97996.59;1779128;79;20906;-59
2022/06/14 04:09:50;;;;;;;7.70;5.28;;;;;;;13.23;95.56;98004.66;1783344;78;21053;-63
2022/06/14 04:12:35;;;;;;;5.47;4.58;;;;;;;13.24;95.26;97998.17;1798849;79;20892;-63
2022/06/14 04:15:34;;;;;;;4.70;4.30;;;;;;;13.26;95.33;98000.00;1768248;79;21579;-59
2022/06/14 04:21:01;;;;;;;5.58;4.87;;;;;;;13.34;94.54;98007.88;1810292;78;20920;-61
2022/06/14 04:23:47;;;;;;;4.42;4.03;;;;;;;13.38;94.67;98008.84;1785029;79;20872;-63
2022/06/14 04:26:43;;;;;;;5.28;3.70;;;;;;;13.39;94.91;98011.25;1763392;80;21416;-62
2022/06/14 04:29:48;;;;;;;4.08;3.72;;;;;;;13.45;94.45;98010.00;1775598;80;21216;-61
2022/06/14 04:32:59;;;;;;;6.80;3.92;;;;;;;13.46;93.58;98006.23;1763582;80;20935;-64
2022/06/14 04:35:36;;;;;;;6.58;3.60;;;;;;;13.53;93.42;98014.66;1813622;78;20848;-59
2022/06/14 04:38:14;;;;;;;4.83;3.55;;;;;;;13.59;92.54;98018.79;1754776;80;27354;-61
2022/06/14 04:40:45;;;;;;;6.75;4.17;;;;;;;13.59;91.60;98022.83;1714739;81;21021;-65
2022/06/14 04:43:20;;;;;;;8.63;4.40;;;;;;;13.61;91.78;98027.34;1714814;81;21111;-65
2022/06/14 04:45:58;;;;;;;4.47;4.08;;;;;;;13.71;92.36;98027.09;1806059;79;20960;-59
2022/06/14 04:48:54;;;;;;;4.47;4.08;;;;;;;13.78;91.21;98025.88;1798697;78;21412;-59
2022/06/14 04:51:35;;;;;;;5.97;4.05;;;;;;;13.79;90.33;98030.13;1774710;80;21010;-62
2022/06/14 04:54:12;;;;;;;6.45;4.53;;;;;;;13.76;90.25;98040.16;1804793;78;21000;-63
2022/06/14 04:56:57;;;;;;;4.65;3.90;;;;;;;13.75;90.75;98037.25;1798946;78;21288;-62
2022/06/14 04:59:32;;;;;;;4.65;3.52;;;;;;;13.86;90.58;98037.22;1800338;78;20915;-61
2022/06/14 05:02:04;;;;;;;4.12;3.62;;;;;;;13.94;91.00;98039.16;1771734;78;20898;-63
2022/06/14 05:04:36;;;;;;;6.78;4.30;;;;;;;14.07;90.63;98040.95;1777153;78;21013;-60
2022/06/14 05:07:17;;;;;;;8.95;4.70;;;;;;;14.14;90.98;98042.64;1803098;79;20876;-61
2022/06/14 05:10:04;;;;;;;4.20;3.80;;;;;;;14.21;90.95;98049.71;1772143;78;21075;-63
2022/06/14 05:12:57;;;;;;;6.90;3.80;;;;;;;14.18;90.14;98048.98;1789548;78;20880;-61
2022/06/14 05:15:48;;;;;;;6.62;3.62;;;;;;;14.11;89.44;98048.09;1775834;80;21024;-60
2022/06/14 05:18:20;;;;;;;4.00;3.50;;;;;;;13.96;88.01;98052.56;1804892;78;20986;-62
2022/06/14 05:20:54;;;;;;;8.10;3.60;;;;;;;13.84;88.20;98055.58;1783855;79;21566;-63
2022/06/14 05:23:40;;;;;;;6.17;3.65;;;;;;;13.82;88.34;98049.71;1792018;78;21242;-63
2022/06/14 05:26:21;;;;;;;5.87;3.55;;;;;;;13.83;89.02;98056.67;1790347;78;20932;-61
2022/06/14 05:28:59;;;;;;;4.12;2.90;;;;;;;13.85;88.58;98050.45;1750782;80;20894;-61
2022/06/14 05:31:37;;;;;;;7.00;2.95;;;;;;;13.85;87.78;98056.60;1799488;78;20936;-59
2022/06/14 05:34:24;;;;;;;3.10;2.80;;;;;;;13.87;87.27;98059.00;1782368;78;21056;-60
2022/06/14 05:36:59;;;;;;;11.48;3.30;;;;;;;13.95;87.47;98059.58;1830395;77;21106;-60
2022/06/14 05:39:31;;;;;;;4.50;2.62;;;;;;;14.11;86.78;98062.10;1813696;78;25239;-62
2022/06/14 05:42:09;;;;;;;3.95;2.42;;;;;;;14.22;86.65;98068.82;1810806;78;21053;-60
2022/06/14 05:44:48;;;;;;;3.50;2.20;;;;;;;14.34;85.81;98072.52;1809671;78;20923;-62
2022/06/14 05:47:18;;;;;;;3.85;2.05;;;;;;;14.50;84.00;98074.25;1815956;77;20931;-62
2022/06/14 05:49:52;;;;;;;4.05;2.20;;;;;;;14.60;82.83;98072.59;1839558;77;21157;-61
2022/06/14 05:52:35;;;;;;;5.35;2.62;;;;;;;14.66;81.90;98070.00;1788497;79;20991;-63
2022/06/14 05:55:13;;;;;;;3.85;2.25;;;;;;;14.69;81.04;98066.69;1809385;77;21054;-63
2022/06/14 05:57:54;;;;;;;6.05;2.35;;;;;;;14.64;80.25;98066.03;1815309;77;20955;-65
2022/06/14 06:00:29;;;;;;;7.03;2.33;;;;;;;14.58;80.36;98066.72;1816746;77;21087;-59
2022/06/14 06:03:28;;;;;;;7.37;2.50;;;;;;;14.51;80.44;98074.47;1822228;77;21145;-60
2022/06/14 06:06:04;;;;;;;3.50;2.40;;;;;;;14.38;80.24;98078.90;1802281;77;20998;-62
2022/06/14 06:08:53;;;;;;;5.92;2.20;;;;;;;14.17;79.40;98079.73;1792203;77;21093;-63
2022/06/14 06:11:32;;;;;;;4.28;2.10;;;;;;;14.05;80.17;98083.56;1817608;77;21065;-62
2022/06/14 06:14:21;;;;;;;3.45;2.10;;;;;;;13.97;80.21;98085.09;1800022;78;20951;-64
2022/06/14 06:17:03;;;;;;;6.85;2.37;;;;;;;13.95;79.48;98086.51;1810093;77;21228;-61
2022/06/14 06:19:57;;;;;;;5.03;2.35;;;;;;;13.93;78.55;98089.52;1807513;78;21018;-63
2022/06/14 06:22:29;;;;;;;8.05;2.10;;;;;;;14.04;78.15;98083.30;1788825;77;21031;-66
2022/06/14 06:25:00;;;;;;;5.03;1.90;;;;;;;14.22;75.66;98091.72;1816924;77;21364;-59
2022/06/14 06:27:37;;;;;;;5.80;1.75;;;;;;;14.39;74.66;98095.83;1798850;77;20942;-61
2022/06/14 06:30:09;;;;;;;7.08;2.05;;;;;;;14.52;75.36;98093.59;1817398;77;21528;-61
2022/06/14 06:32:37;;;;;;;8.75;2.15;;;;;;;14.58;76.04;98098.30;1822040;77;21031;-57
2022/06/14 06:35:05;;;;;;;5.05;2.10;;;;;;;14.57;76.31;98108.83;1791410;78;21032;-62
2022/06/14 06:37:49;;;;;;;4.95;1.92;;;;;;;14.42;75.78;98111.94;1798735;78;20999;-60
2022/06/14 06:40:20;;;;;;;3.05;1.70;;;;;;;14.32;76.38;98111.66;1806063;77;21054;-63
2022/06/14 06:43:09;;;;;;;3.72;1.50;;;;;;;14.32;76.52;98107.07;1802320;78;21131;-58
2022/06/14 06:45:41;;;;;;;5.78;1.60;;;;;;;14.40;74.08;98116.30;1788680;77;21088;-65
2022/06/14 06:48:24;;;;;;;4.72;1.50;;;;;;;14.47;73.16;98113.95;1811170;77;21153;-61
2022/06/14 06:50:55;;;;;;;6.97;1.62;;;;;;;14.55;72.17;98118.58;1822658;77;21106;-65
2022/06/14 06:53:24;;;;;;;2.80;1.27;;;;;;;14.66;68.40;98116.38;1818025;77;21176;-62
2022/06/14 06:55:58;;;;;;;3.45;1.22;;;;;;;14.77;70.63;98125.20;1780376;79;21126;-61
2022/06/14 06:58:37;;;;;;;3.57;1.20;;;;;;;14.97;69.56;98119.23;1735550;80;21143;-60
2022/06/14 07:01:15;;;;;;;6.40;1.40;;;;;;;15.13;67.17;98122.80;1818478;77;21149;-59
2022/06/14 07:04:00;;;;;;;3.37;1.30;;;;;;;15.19;65.47;98109.42;1803295;77;21102;-64
2022/06/14 07:06:47;;;;;;;4.25;1.40;;;;;;;15.24;64.50;98120.83;1804935;77;21051;-59
2022/06/14 07:09:50;;;;;;;3.98;1.30;;;;;;;15.30;65.01;98128.22;1799214;77;21240;-64
2022/06/14 07:12:37;;;;;;;5.17;1.40;;;;;;;15.34;63.04;98131.86;1793420;78;21059;-57
2022/06/14 07:15:16;;;;;;;3.92;1.12;;;;;;;15.52;64.15;98126.75;1804863;77;21086;-63
2022/06/14 07:18:25;;;;;;;4.90;1.72;;;;;;;15.76;64.83;98121.62;1815638;77;21101;-62
2022/06/14 07:21:14;;;;;;;4.15;1.30;;;;;;;15.89;65.18;98126.06;1805772;77;21046;-61
2022/06/14 07:23:57;;;;;;;4.35;1.47;;;;;;;15.80;62.37;98132.05;1792921;77;21915;-58
2022/06/14 07:26:37;;;;;;;5.67;1.32;;;;;;;15.44;63.47;98140.48;1797372;77;21008;-59
2022/06/14 07:29:24;;;;;;;3.70;1.30;;;;;;;15.20;65.09;98145.52;1793221;77;21067;-61
2022/06/14 07:32:00;;;;;;;2.33;1.05;;;;;;;15.19;66.63;98141.80;1814750;77;21048;-65
2022/06/14 07:34:32;;;;;;;3.90;1.30;;;;;;;15.39;64.43;98137.11;1808636;77;21030;-61
2022/06/14 07:37:07;;;;;;;2.55;1.00;;;;;;;15.56;61.10;98147.94;1781197;79;21707;-60
2022/06/14 07:40:04;;;;;;;4.55;1.20;;;;;;;15.70;61.79;98139.12;1785542;79;21109;-57
2022/06/14 07:42:45;;;;;;;3.60;1.30;;;;;;;15.89;63.05;98139.57;1780317;79;21062;-63
2022/06/14 07:45:31;;;;;;;2.62;1.30;;;;;;;16.06;61.43;98145.50;1767879;80;21209;-72
2022/06/14 07:48:12;;;;;;;6.50;1.52;;;;;;;16.05;60.12;98150.09;1768432;79;21098;-61
2022/06/14 07:50:57;;;;;;;2.50;1.20;;;;;;;15.92;60.43;98155.11;1789163;78;21073;-61
2022/06/14 07:53:47;;;;;;;3.62;1.30;;;;;;;15.71;61.34;98160.39;1798483;77;21003;-62
2022/06/14 07:56:23;;;;;;;2.75;1.20;;;;;;;15.62;62.82;98160.16;1803606;77;21051;-66
2022/06/14 07:58:57;;;;;;;6.50;1.32;;;;;;;15.60;62.39;98156.44;1800649;78;21524;-60
2022/06/14 08:01:29;;;;;;;2.67;1.40;;;;;;;15.67;62.59;98156.75;1791515;78;21635;-60
2022/06/14 08:04:03;;;;;;;4.53;1.42;;;;;;;15.76;62.07;98151.33;1806895;77;21244;-60
2022/06/14 08:06:45;;;;;;;4.53;1.72;;;;;;;15.91;61.61;98159.50;1808189;76;21024;-60
2022/06/14 08:09:46;;;;;;;5.00;1.55;;;;;;;16.12;61.31;98146.34;1795678;76;21018;-65
2022/06/14 08:12:41;;;;;;;3.58;1.00;;;;;;;16.34;61.28;98148.83;1810034;77;21022;-59
2022/06/14 08:15:19;;;;;;;6.58;1.67;;;;;;;16.48;60.58;98151.88;1795501;77;21576;-60
2022/06/14 08:17:53;;;;;;;3.83;1.02;;;;;;;16.55;60.60;98157.59;1814328;77;21889;-59
2022/06/14 08:20:26;;;;;;;3.55;1.20;;;;;;;16.57;60.23;98158.86;1810063;77;20960;-62
2022/06/14 08:22:59;;;;;;;2.83;1.12;;;;;;;16.56;57.72;98168.08;1803985;77;21110;-65
2022/06/14 08:25:33;;;;;;;6.72;1.30;;;;;;;16.41;58.07;98173.45;1799350;77;21059;-64
2022/06/14 08:28:15;;;;;;;;;;;;;;;16.28;59.67;98171.73;1789579;77;21050;-61
2022/06/14 08:30:59;;;;;;;4.55;1.55;;;;;;;16.32;59.99;98169.96;1804938;77;21255;-60
2022/06/14 08:33:44;;;;;;;2.95;1.20;;;;;;;16.41;59.10;98172.11;1814204;77;21509;-62
2022/06/14 08:36:15;;;;;;;4.67;1.40;;;;;;;16.51;58.76;98168.80;1725807;81;21146;-61
2022/06/14 08:38:53;;;;;;;4.80;1.45;;;;;;;16.54;55.51;98172.22;1735375;81;21580;-64
2022/06/14 08:41:45;;;;;;;4.08;1.40;;;;;;;16.51;57.26;98166.10;1815529;76;21053;-67
2022/06/14 08:44:21;;;;;;;5.70;1.40;;;;;;;16.60;56.02;98173.09;1814815;77;21248;-64
2022/06/14 08:47:40;;;;;;;5.00;1.32;;;;;;;16.61;57.59;98163.05;1755462;79;21044;-64
2022/06/14 08:50:21;;;;;;;3.87;1.20;;;;;;;16.57;55.91;98163.47;1800589;77;21100;-65
2022/06/14 08:53:19;;;;;;;3.05;1.10;;;;;;;16.39;57.25;98170.84;1809355;77;21561;-60
2022/06/14 08:56:24;;;;;;;4.00;1.35;;;;;;;16.31;57.95;98177.85;1802354;76;21046;-62
2022/06/14 08:59:14;;;;;;;4.35;1.67;;;;;;;16.32;58.11;98170.55;1804359;77;21122;-60
2022/06/14 09:02:07;;;;;;;7.15;1.60;;;;;;;16.34;57.93;98170.46;1773632;77;21146;-58
2022/06/14 09:05:07;;;;;;;5.20;1.40;;;;;;;16.52;59.75;98158.23;1819290;77;20967;-64
2022/06/14 09:08:05;;;;;;;4.00;1.30;;;;;;;16.88;60.41;98161.27;1809629;77;21103;-64
2022/06/14 09:10:49;;;;;;;4.00;1.40;;;;;;;17.23;57.50;98155.87;1744147;80;21075;-62
2022/06/14 09:13:31;;;;;;;3.58;1.45;;;;;;;17.46;56.97;98153.06;1755517;80;21714;-66
2022/06/14 09:16:12;;;;;;;4.75;1.20;;;;;;;17.66;54.18;98165.05;1726450;81;21122;-62
2022/06/14 09:19:00;;;;;;;3.33;1.45;;;;;;;17.72;55.00;98169.92;1757377;80;21078;-63
2022/06/14 09:22:08;;;;;;;4.00;1.40;;;;;;;17.75;52.83;98162.50;1724134;80;21007;-59
2022/06/14 09:24:53;;;;;;;3.22;1.10;;;;;;;17.64;51.84;98165.36;1820891;77;21090;-69
2022/06/14 09:28:14;;;;;;;4.58;1.50;;;;;;;17.46;52.48;98163.89;1816567;77;21173;-64
2022/06/14 09:31:01;;;;;;;5.80;1.57;;;;;;;17.44;54.05;98168.85;1734220;81;21586;-62
2022/06/14 09:33:52;;;;;;;4.72;1.80;;;;;;;17.62;53.32;98170.32;1728589;81;21141;-58
2022/06/14 09:36:33;;;;;;;7.33;1.60;;;;;;;17.72;53.69;98169.92;1751841;77;21113;-59
2022/06/14 09:39:08;;;;;;;2.65;1.30;;;;;;;17.79;53.31;98161.25;1827770;77;21599;-64
2022/06/14 09:42:30;;;;;;;5.50;1.57;;;;;;;17.82;53.73;98155.73;1798698;78;21123;-67
2022/06/14 09:45:09;;;;;;;5.65;1.42;;;;;;;17.92;54.34;98158.84;1737389;81;21545;-65
2022/06/14 09:47:59;;;;;;;4.65;1.37;;;;;;;18.04;53.55;98158.09;1741849;80;21068;-62
2022/06/14 09:50:53;;;;;;;3.87;1.50;;;;;;;18.05;52.05;98170.49;1719632;80;21098;-66
2022/06/14 09:53:55;;;;;;;5.55;1.42;;;;;;;17.85;53.35;98172.69;1812056;78;21032;-71
2022/06/14 09:56:53;;;;;;;4.40;1.32;;;;;;;17.54;52.40;98177.97;1810062;77;21245;-60
2022/06/14 09:59:49;;;;;;;2.12;1.20;;;;;;;17.26;53.60;98172.81;1806064;77;21584;-66
2022/06/14 10:02:44;;;;;;;5.62;1.60;;;;;;;17.24;52.29;98166.91;1780321;77;21060;-68
2022/06/14 10:06:03;;;;;;;6.45;1.10;;;;;;;17.42;52.65;98165.69;1814346;77;21078;-64
2022/06/14 10:09:15;;;;;;;4.78;1.80;;;;;;;17.82;53.17;98162.51;1812380;77;21504;-66
2022/06/14 10:12:11;;;;;;;3.67;1.50;;;;;;;18.14;50.61;98175.26;1809518;77;21199;-62
2022/06/14 10:15:06;;;;;;;4.08;1.00;;;;;;;17.96;49.49;98165.17;1804380;77;21010;-64
2022/06/14 10:17:44;;;;;;;3.33;1.30;;;;;;;17.76;50.47;98167.33;1805757;77;20924;-61
2022/06/14 10:20:25;;;;;;;3.17;1.37;;;;;;;17.82;51.92;98166.02;1790415;78;21069;-67
2022/06/14 10:23:14;;;;;;;4.65;1.50;;;;;;;18.06;51.50;98172.09;1794951;77;21112;-63
2022/06/14 10:29:38;;;;;;;7.85;1.30;;;;;;;18.31;50.41;98167.75;1802911;77;22141;-64
2022/06/14 10:32:31;;;;;;;1.72;1.10;;;;;;;18.44;48.36;98166.63;1817709;77;21099;-63
2022/06/14 10:35:24;;;;;;;1.67;1.02;;;;;;;18.52;48.34;98170.41;1802239;78;21053;-63
2022/06/14 10:38:31;;;;;;;1.50;1.10;;;;;;;18.45;47.52;98175.56;1815614;77;21506;-65
2022/06/14 10:41:18;;;;;;;4.55;1.40;;;;;;;18.20;46.49;98168.52;1835647;77;21235;-62
2022/06/14 10:46:44;;;;;;;;;;;;;;;17.82;49.38;98177.41;1804827;77;21555;-59
2022/06/14 10:49:42;;;;;;;3.60;1.50;;;;;;;17.76;50.39;98170.84;1840298;77;20171;-59
2022/06/14 10:52:39;;;;;;;3.37;1.47;;;;;;;17.90;50.92;98173.26;1825593;77;21533;-59
2022/06/14 10:55:24;;;;;;;2.20;1.27;;;;;;;18.24;52.27;98166.71;1801495;77;21105;-66
2022/06/14 10:58:08;;;;;;;3.60;1.45;;;;;;;18.51;50.73;98163.41;1784595;78;21061;-63
2022/06/14 11:01:10;;;;;;;2.72;1.32;;;;;;;18.72;49.21;98161.39;1772760;79;21574;-62
2022/06/14 11:04:22;;;;;;;2.65;1.32;;;;;;;18.74;48.67;98159.13;1803822;77;21073;-61
2022/06/14 11:07:26;;;;;;;2.17;1.20;;;;;;;18.61;47.09;98165.66;1768902;77;21077;-63
2022/06/14 11:10:13;;;;;;;2.22;1.42;;;;;;;18.43;47.82;98161.55;1813927;77;21111;-58
2022/06/14 11:13:10;;;;;;;5.50;1.67;;;;;;;18.24;49.17;98165.36;1772728;77;21165;-61
2022/06/14 11:15:53;;;;;;;5.45;1.55;;;;;;;18.09;49.67;98166.78;1806019;77;21057;-62
2022/06/14 11:18:52;;;;;;;3.90;1.40;;;;;;;18.02;50.72;98165.73;1802717;77;21077;-68
2022/06/14 11:21:27;;;;;;;3.90;1.60;;;;;;;18.05;50.04;98161.80;1799674;78;21455;-62
2022/06/14 11:24:29;;;;;;;2.83;1.45;;;;;;;18.17;50.45;98152.91;1786866;78;21252;-63
2022/06/14 11:27:11;;;;;;;4.53;1.47;;;;;;;18.36;49.56;98153.18;1800865;78;21062;-65
2022/06/14 11:29:51;;;;;;;2.55;1.17;;;;;;;18.51;46.73;98155.28;1802105;79;21049;-62
2022/06/14 11:32:22;;;;;;;2.08;1.12;;;;;;;18.74;45.70;98148.28;1787401;78;20966;-64
2022/06/14 11:35:03;;;;;;;3.10;1.52;;;;;;;18.99;47.97;98149.84;1788255;78;21137;-64
2022/06/14 11:37:56;;;;;;;3.40;1.27;;;;;;;19.41;45.84;98144.13;1811162;77;21794;-61
2022/06/14 11:40:25;;;;;;;3.50;1.30;;;;;;;19.79;45.41;98144.45;1818289;77;21154;-61
2022/06/14 11:43:32;;;;;;;1.22;0.80;;;;;;;20.08;45.01;98144.10;1806947;77;21014;-61
2022/06/14 11:46:14;;;;;;;2.58;1.12;;;;;;;20.17;44.17;98137.93;1817447;77;21058;-62
2022/06/14 11:48:49;;;;;;;4.67;1.30;;;;;;;19.93;45.13;98146.77;1800933;77;21074;-64
2022/06/14 11:51:37;;;;;;;3.20;1.00;;;;;;;19.60;45.89;98141.02;1810419;77;21822;-64
2022/06/14 11:54:36;;;;;;;4.40;1.20;;;;;;;19.33;45.43;98149.11;1806227;77;21427;-59
2022/06/14 11:57:15;;;;;;;2.52;1.20;;;;;;;19.35;47.03;98150.35;1766179;79;21495;-68
2022/06/14 12:00:09;;;;;;;3.45;1.07;;;;;;;19.32;45.58;98155.11;1820707;77;21109;-63
2022/06/14 12:03:28;;;;;;;3.95;0.90;;;;;;;19.18;45.67;98149.25;1805027;77;21200;-59
2022/06/14 12:06:31;;;;;;;3.45;1.05;;;;;;;19.47;44.59;98140.05;1807881;77;21887;-59
2022/06/14 12:09:17;;;;;;;4.87;1.30;;;;;;;20.05;41.09;98136.63;1809052;77;21438;-60
2022/06/14 12:12:15;;;;;;;2.98;1.30;;;;;;;20.50;42.64;98130.03;1806731;77;21059;-63
2022/06/14 12:14:55;;;;;;;3.15;1.10;;;;;;;20.79;43.63;98125.50;1791060;77;21101;-59
2022/06/14 12:17:30;;;;;;;3.45;1.10;;;;;;;20.99;40.88;98132.00;1795430;78;21065;-59
2022/06/14 12:20:12;;;;;;;2.90;0.95;;;;;;;21.09;40.55;98123.89;1800420;78;21097;-57
2022/06/14 12:22:59;;;;;;;2.35;0.98;;;;;;;21.35;39.57;98140.98;1789809;77;21051;-57
2022/06/14 12:29:06;;;;;;;3.77;1.07;;;;;;;21.33;39.01;98137.27;1810212;79;21124;-66
2022/06/14 12:32:01;;;;;;;2.85;0.90;;;;;;;21.25;38.55;98138.25;1800234;78;21090;-56
2022/06/14 12:34:37;;;;;;;1.87;1.00;;;;;;;21.46;38.50;98135.19;1796055;77;21103;-61
2022/06/14 12:37:53;;;;;;;2.42;0.85;;;;;;;21.61;36.40;98128.33;1805365;77;21079;-57
2022/06/14 12:40:50;;;;;;;2.15;0.88;;;;;;;21.65;36.51;98131.11;1814882;77;20877;-63
2022/06/14 12:43:27;;;;;;;2.87;0.88;;;;;;;21.25;38.06;98140.97;1813430;78;20967;-60
2022/06/14 12:46:01;;;;;;;2.30;1.00;;;;;;;20.97;37.39;98142.47;1812574;77;20991;-65
2022/06/14 12:48:47;;;;;;;3.57;1.10;;;;;;;20.83;37.74;98135.89;1809157;78;21104;-64
2022/06/14 12:51:49;;;;;;;1.98;0.90;;;;;;;20.83;38.54;98161.75;1812404;78;20859;-68
2022/06/14 12:54:44;;;;;;;2.30;0.70;;;;;;;20.70;38.30;98143.95;1811802;78;21069;-67
2022/06/14 12:57:25;;;;;;;1.30;0.60;;;;;;;20.49;37.51;98152.95;1814415;78;21091;-63
2022/06/14 13:00:00;;;;;;;2.35;0.70;;;;;;;20.60;39.44;98147.20;1796947;78;21429;-64
2022/06/14 13:02:44;;;;;;;2.25;1.00;;;;;;;20.92;36.90;98140.58;1794475;78;21588;-61
2022/06/14 13:05:16;;;;;;;1.17;0.57;;;;;;;21.21;36.54;98140.12;1815512;78;21379;-60
2022/06/14 13:08:25;;;;;;;1.87;0.60;;;;;;;21.50;36.03;98145.04;1816328;78;20900;-68